Time;durP1;ratioP1;P1;durP2;ratioP2;P2;SDS_P1;SDS_P2;PMS_P1;PMS_P2;Temp;Humidity;BMP_temperature;BMP_pressure;BME280_temperature;BME280_humidity;BME280_pressure;Samples;Min_cycle;Max_cycle;Signal;HPM_P1;HPM_P2
2021/04/16 00:02:20;;;;;;;11.67;9.07;;;6.60;99.90;;;;;;5081352;28;20200;-66
2021/04/16 00:04:46;;;;;;;13.20;8.67;;;6.60;99.90;;;;;;5083321;28;20556;-66
2021/04/16 00:07:12;;;;;;;12.60;8.60;;;6.70;99.90;;;;;;5078701;28;20824;-65
2021/04/16 00:09:39;;;;;;;11.70;8.83;;;6.70;99.90;;;;;;5081770;28;20209;-67
2021/04/16 00:12:07;;;;;;;12.90;9.77;;;6.70;99.90;;;;;;5081199;28;20300;-66
2021/04/16 00:14:34;;;;;;;14.60;10.40;;;6.70;99.90;;;;;;5080250;28;20221;-65
2021/04/16 00:17:01;;;;;;;17.33;12.30;;;6.70;99.90;;;;;;5074928;28;20280;-66
2021/04/16 00:19:28;;;;;;;14.40;12.80;;;6.70;99.90;;;;;;5073200;28;20449;-66
2021/04/16 00:21:54;;;;;;;16.70;13.47;;;6.70;99.90;;;;;;5072296;28;20292;-66
2021/04/16 00:24:21;;;;;;;18.27;13.07;;;6.70;99.90;;;;;;5076111;28;20311;-65
2021/04/16 00:26:47;;;;;;;16.27;11.87;;;6.70;99.90;;;;;;5075696;28;20321;-65
2021/04/16 00:29:14;;;;;;;16.07;11.80;;;6.70;99.90;;;;;;5070323;28;20289;-66
2021/04/16 00:31:50;;;;;;;12.27;9.43;;;6.70;99.90;;;;;;5083493;28;20215;-65
2021/04/16 00:34:18;;;;;;;10.77;7.70;;;6.70;99.90;;;;;;5075206;28;20217;-66
2021/04/16 00:36:44;;;;;;;10.47;8.13;;;6.70;99.90;;;;;;5081922;28;20201;-67
2021/04/16 00:39:10;;;;;;;13.13;7.60;;;6.70;99.90;;;;;;5080630;28;20209;-66
2021/04/16 00:41:37;;;;;;;9.93;7.63;;;6.60;99.90;;;;;;5089633;28;20662;-66
2021/04/16 00:44:04;;;;;;;11.33;8.07;;;6.60;99.90;;;;;;5081537;28;20703;-67
2021/04/16 00:46:40;;;;;;;10.17;7.83;;;6.60;99.90;;;;;;5088907;28;20215;-67
2021/04/16 00:49:08;;;;;;;11.97;8.10;;;6.60;99.90;;;;;;5084275;28;20196;-67
2021/04/16 00:51:40;;;;;;;11.23;7.27;;;6.60;99.90;;;;;;5088393;28;20664;-65
2021/04/16 00:54:13;;;;;;;10.87;7.67;;;6.70;99.90;;;;;;5082202;28;20227;-66
2021/04/16 00:56:40;;;;;;;12.80;7.17;;;6.70;99.90;;;;;;5087311;28;20253;-65
2021/04/16 00:59:07;;;;;;;14.53;8.33;;;6.60;99.90;;;;;;5083914;28;20545;-66
2021/04/16 01:01:33;;;;;;;9.40;7.23;;;6.70;99.90;;;;;;5086736;28;20204;-66
2021/04/16 01:04:00;;;;;;;7.87;6.97;;;6.70;99.90;;;;;;5073532;28;20267;-66
2021/04/16 01:06:27;;;;;;;10.37;7.63;;;6.70;99.90;;;;;;5085191;28;20215;-66
2021/04/16 01:08:54;;;;;;;9.57;6.97;;;6.70;99.90;;;;;;5080274;28;20224;-66
2021/04/16 01:11:21;;;;;;;13.17;7.40;;;6.70;99.90;;;;;;5085077;28;20288;-67
2021/04/16 01:13:53;;;;;;;8.37;6.63;;;6.70;99.90;;;;;;5075487;28;20312;-66
2021/04/16 01:16:22;;;;;;;13.47;7.33;;;6.70;99.90;;;;;;5084998;28;20203;-66
2021/04/16 01:18:51;;;;;;;11.07;7.30;;;6.70;99.90;;;;;;5084718;28;20234;-66
2021/04/16 01:21:23;;;;;;;11.60;6.30;;;6.70;99.90;;;;;;5081099;28;20229;-66
2021/04/16 01:23:52;;;;;;;10.87;6.57;;;6.70;99.90;;;;;;5080406;28;20208;-66
2021/04/16 01:26:24;;;;;;;8.93;6.57;;;6.70;99.90;;;;;;5083810;28;20268;-66
2021/04/16 01:28:54;;;;;;;8.93;6.50;;;6.70;99.90;;;;;;5077029;28;20358;-66
2021/04/16 01:31:24;;;;;;;10.70;6.70;;;6.70;99.90;;;;;;5072377;28;20200;-66
2021/04/16 01:33:51;;;;;;;10.90;6.60;;;6.70;99.90;;;;;;5081076;28;20581;-66
2021/04/16 01:36:24;;;;;;;8.23;6.30;;;6.70;99.90;;;;;;5084801;28;20208;-66
2021/04/16 01:38:51;;;;;;;7.63;5.80;;;6.70;99.90;;;;;;5071733;28;20211;-66
2021/04/16 01:41:18;;;;;;;8.03;6.17;;;6.70;99.90;;;;;;5074813;28;20209;-66
2021/04/16 01:43:53;;;;;;;11.57;7.03;;;6.70;99.90;;;;;;5069338;28;20208;-67
2021/04/16 01:46:21;;;;;;;11.33;6.50;;;6.80;99.90;;;;;;5074016;28;20193;-66
2021/04/16 01:48:49;;;;;;;8.40;6.43;;;6.80;99.90;;;;;;5075820;28;20558;-65
2021/04/16 01:51:19;;;;;;;8.77;7.50;;;6.70;99.90;;;;;;5074166;28;20205;-66
2021/04/16 01:53:46;;;;;;;12.20;8.27;;;6.70;99.90;;;;;;5069303;28;20327;-66
2021/04/16 01:56:13;;;;;;;12.40;8.33;;;6.70;99.90;;;;;;5077873;28;20205;-67
2021/04/16 01:58:39;;;;;;;11.77;8.63;;;6.70;99.90;;;;;;5081545;28;20680;-66
2021/04/16 02:01:09;;;;;;;11.67;7.50;;;6.70;99.90;;;;;;5080542;28;20677;-67
2021/04/16 02:03:36;;;;;;;10.33;7.30;;;6.70;99.90;;;;;;5080326;28;20247;-66
2021/04/16 02:06:03;;;;;;;8.80;6.67;;;6.70;99.90;;;;;;5084053;28;20214;-66
2021/04/16 02:08:30;;;;;;;8.87;6.37;;;6.70;99.90;;;;;;5074831;28;20228;-67
2021/04/16 02:10:56;;;;;;;9.13;6.43;;;6.70;99.90;;;;;;5078302;28;20204;-66
2021/04/16 02:13:23;;;;;;;7.77;6.27;;;6.70;99.90;;;;;;5079006;28;20234;-66
2021/04/16 02:15:49;;;;;;;10.53;6.50;;;6.70;99.90;;;;;;5089029;28;20211;-67
2021/04/16 02:18:16;;;;;;;10.07;5.77;;;6.70;99.90;;;;;;5080960;28;20272;-65
2021/04/16 02:20:43;;;;;;;7.37;6.30;;;6.70;99.90;;;;;;5071019;28;20243;-65
2021/04/16 02:23:09;;;;;;;7.83;5.67;;;6.70;99.90;;;;;;5076766;28;20244;-67
2021/04/16 02:25:36;;;;;;;7.83;6.13;;;6.70;99.90;;;;;;5076296;28;20236;-66
2021/04/16 02:28:03;;;;;;;7.70;6.90;;;6.70;99.90;;;;;;5079716;28;20209;-66
2021/04/16 02:30:32;;;;;;;12.77;6.50;;;6.70;99.90;;;;;;5083090;28;20212;-67
2021/04/16 02:32:58;;;;;;;10.07;6.40;;;6.70;99.90;;;;;;5080736;28;20660;-65
2021/04/16 02:35:26;;;;;;;7.93;6.33;;;6.60;99.90;;;;;;5079462;28;20224;-66
2021/04/16 02:37:54;;;;;;;8.87;5.97;;;6.60;99.90;;;;;;5078779;28;20204;-66
2021/04/16 02:40:24;;;;;;;10.67;5.60;;;6.60;99.90;;;;;;5075104;28;20282;-66
2021/04/16 02:42:52;;;;;;;8.53;6.10;;;6.60;99.90;;;;;;5080227;28;20299;-66
2021/04/16 02:45:22;;;;;;;7.83;6.03;;;6.50;99.90;;;;;;5079237;28;20212;-66
2021/04/16 02:47:49;;;;;;;7.70;5.13;;;6.50;99.90;;;;;;5083992;28;20208;-66
2021/04/16 02:50:19;;;;;;;10.27;5.60;;;6.50;99.90;;;;;;5086055;28;20205;-65
2021/04/16 02:52:46;;;;;;;8.87;5.60;;;6.50;99.90;;;;;;5083405;28;20273;-65
2021/04/16 02:55:14;;;;;;;7.87;5.37;;;6.50;99.90;;;;;;5077406;28;20221;-65
2021/04/16 02:57:40;;;;;;;7.00;5.30;;;6.50;99.90;;;;;;5082504;28;20210;-66
2021/04/16 03:00:08;;;;;;;8.60;6.17;;;6.50;99.90;;;;;;5078969;28;20295;-65
2021/04/16 03:02:34;;;;;;;7.97;5.83;;;6.50;99.90;;;;;;5080505;28;20272;-66
2021/04/16 03:05:01;;;;;;;7.80;5.27;;;6.50;99.90;;;;;;5080277;28;20649;-67
2021/04/16 03:07:28;;;;;;;8.03;6.03;;;6.40;99.90;;;;;;5081120;28;20638;-65
2021/04/16 03:09:55;;;;;;;6.97;5.17;;;6.50;99.90;;;;;;5077496;28;20243;-67
2021/04/16 03:12:22;;;;;;;6.83;4.73;;;6.50;99.90;;;;;;5078295;28;20291;-65
2021/04/16 03:14:48;;;;;;;5.63;4.30;;;6.50;99.90;;;;;;5083984;28;20702;-67
2021/04/16 03:17:14;;;;;;;6.53;5.00;;;6.50;99.90;;;;;;5076301;28;20206;-64
2021/04/16 03:19:41;;;;;;;6.20;4.93;;;6.50;99.90;;;;;;5076777;28;20527;-65
2021/04/16 03:22:07;;;;;;;9.70;5.43;;;6.50;99.90;;;;;;5074175;28;20668;-65
2021/04/16 03:24:33;;;;;;;7.27;5.27;;;6.40;99.90;;;;;;5074411;28;20204;-66
2021/04/16 03:27:01;;;;;;;6.53;4.10;;;6.50;99.90;;;;;;5079733;28;20254;-68
2021/04/16 03:29:27;;;;;;;8.60;5.33;;;6.50;99.90;;;;;;5080465;28;20597;-65
2021/04/16 03:31:54;;;;;;;6.20;5.10;;;6.50;99.90;;;;;;5079392;28;20270;-66
2021/04/16 03:34:20;;;;;;;7.87;5.53;;;6.50;99.90;;;;;;5078619;28;20228;-65
2021/04/16 03:36:46;;;;;;;5.97;4.90;;;6.50;99.90;;;;;;5079784;28;20291;-66
2021/04/16 03:39:13;;;;;;;8.03;4.50;;;6.50;99.90;;;;;;5084978;28;20210;-65
2021/04/16 03:41:39;;;;;;;7.77;5.37;;;6.50;99.90;;;;;;5076989;28;20205;-65
2021/04/16 03:44:07;;;;;;;7.07;4.93;;;6.40;99.90;;;;;;5083441;28;20561;-66
2021/04/16 03:46:33;;;;;;;5.30;4.80;;;6.50;99.90;;;;;;5083328;28;20233;-65
2021/04/16 03:49:00;;;;;;;9.00;4.67;;;6.40;99.90;;;;;;5080632;28;20269;-66
2021/04/16 03:51:26;;;;;;;8.20;4.87;;;6.50;99.90;;;;;;5075591;28;20216;-65
2021/04/16 03:53:52;;;;;;;7.03;4.93;;;6.50;99.90;;;;;;5080112;28;20659;-66
2021/04/16 03:56:19;;;;;;;6.50;4.80;;;6.50;99.90;;;;;;5080582;28;20619;-65
2021/04/16 03:58:46;;;;;;;6.20;4.63;;;6.50;99.90;;;;;;5082823;28;20204;-66
2021/04/16 04:01:15;;;;;;;7.60;4.83;;;6.50;99.90;;;;;;5083566;28;20239;-66
2021/04/16 04:03:41;;;;;;;6.50;5.03;;;6.40;99.90;;;;;;5081313;28;20206;-65
2021/04/16 04:06:08;;;;;;;6.53;4.77;;;6.50;99.90;;;;;;5085577;28;20292;-66
2021/04/16 04:08:35;;;;;;;8.80;5.03;;;6.40;99.90;;;;;;5078583;28;20296;-66
2021/04/16 04:11:02;;;;;;;6.27;5.10;;;6.40;99.90;;;;;;5080847;28;20212;-66
2021/04/16 04:13:28;;;;;;;7.23;4.87;;;6.40;99.90;;;;;;5082167;28;20689;-65
2021/04/16 04:15:55;;;;;;;8.83;5.23;;;6.30;99.90;;;;;;5084287;28;20316;-65
2021/04/16 04:18:22;;;;;;;7.90;5.27;;;6.30;99.90;;;;;;5083002;28;20211;-65
2021/04/16 04:20:48;;;;;;;6.87;4.77;;;6.30;99.90;;;;;;5088186;28;20228;-66
2021/04/16 04:23:14;;;;;;;6.90;5.20;;;6.30;99.90;;;;;;5074673;28;20288;-65
2021/04/16 04:25:41;;;;;;;6.50;4.90;;;6.30;99.90;;;;;;5083246;28;20366;-66
2021/04/16 04:28:08;;;;;;;7.17;5.10;;;6.30;99.90;;;;;;5078297;28;20432;-66
2021/04/16 04:30:37;;;;;;;5.83;4.57;;;6.30;99.90;;;;;;5088049;28;20212;-67
2021/04/16 04:33:04;;;;;;;6.43;4.93;;;6.30;99.90;;;;;;5079374;28;20216;-67
2021/04/16 04:35:31;;;;;;;9.97;5.27;;;6.30;99.90;;;;;;5089443;28;20319;-66
2021/04/16 04:37:57;;;;;;;9.20;5.53;;;6.30;99.90;;;;;;5086510;28;20215;-65
2021/04/16 04:40:26;;;;;;;7.57;5.03;;;6.30;99.90;;;;;;5079198;28;20204;-66
2021/04/16 04:42:53;;;;;;;6.97;4.97;;;6.20;99.90;;;;;;5079702;28;20210;-65
2021/04/16 04:45:20;;;;;;;6.43;4.77;;;6.20;99.90;;;;;;5087515;28;20232;-65
2021/04/16 04:47:47;;;;;;;9.07;4.87;;;6.30;99.90;;;;;;5079331;28;20572;-65
2021/04/16 04:50:14;;;;;;;9.87;5.00;;;6.30;99.90;;;;;;5079813;28;20285;-65
2021/04/16 04:52:42;;;;;;;6.50;4.40;;;6.30;99.90;;;;;;5082350;28;20207;-67
2021/04/16 04:55:12;;;;;;;6.73;4.73;;;6.30;99.90;;;;;;5079372;28;20686;-66
2021/04/16 04:57:39;;;;;;;6.17;4.70;;;6.30;99.90;;;;;;5080833;28;20297;-65
2021/04/16 05:00:07;;;;;;;7.47;4.87;;;6.30;99.90;;;;;;5078421;28;20223;-66
2021/04/16 05:02:34;;;;;;;6.87;5.53;;;6.30;99.90;;;;;;5081166;28;20212;-65
2021/04/16 05:05:00;;;;;;;7.10;4.83;;;6.40;99.90;;;;;;5084583;28;20268;-64
2021/04/16 05:07:26;;;;;;;5.90;4.60;;;6.40;99.90;;;;;;5091042;28;20295;-64
2021/04/16 05:09:54;;;;;;;7.57;5.10;;;6.40;99.90;;;;;;5084477;28;20230;-65
2021/04/16 05:12:20;;;;;;;9.20;4.90;;;6.40;99.90;;;;;;5076992;28;20297;-65
2021/04/16 05:14:47;;;;;;;9.40;5.70;;;6.50;99.90;;;;;;5085671;28;20232;-66
2021/04/16 05:17:13;;;;;;;7.30;4.93;;;6.40;99.90;;;;;;5087606;28;20215;-66
2021/04/16 05:19:40;;;;;;;6.43;5.03;;;6.50;99.90;;;;;;5078648;28;20204;-65
2021/04/16 05:22:07;;;;;;;6.53;5.73;;;6.50;99.90;;;;;;5076853;28;20201;-66
2021/04/16 05:24:34;;;;;;;6.90;4.87;;;6.50;99.90;;;;;;5083859;28;20517;-65
2021/04/16 05:27:03;;;;;;;10.17;6.00;;;6.60;99.90;;;;;;5085580;28;20244;-66
2021/04/16 05:29:29;;;;;;;10.63;5.67;;;6.50;99.90;;;;;;5087538;28;20208;-66
2021/04/16 05:31:56;;;;;;;7.30;6.00;;;6.60;99.90;;;;;;5077710;28;20630;-65
2021/04/16 05:34:23;;;;;;;7.17;6.20;;;6.60;99.90;;;;;;5080079;28;20624;-67
2021/04/16 05:36:49;;;;;;;7.43;6.27;;;6.60;99.90;;;;;;5083055;28;20296;-65
2021/04/16 05:39:16;;;;;;;9.07;7.07;;;6.60;99.90;;;;;;5087004;28;20613;-64
2021/04/16 05:41:43;;;;;;;7.40;6.47;;;6.60;99.90;;;;;;5081147;28;20209;-67
2021/04/16 05:44:11;;;;;;;8.00;6.50;;;6.60;99.90;;;;;;5079257;28;20197;-66
2021/04/16 05:46:37;;;;;;;9.87;6.17;;;6.60;99.90;;;;;;5077612;28;20258;-65
2021/04/16 05:49:04;;;;;;;10.33;6.23;;;6.60;99.90;;;;;;5083812;28;20200;-65
2021/04/16 05:51:31;;;;;;;10.87;6.10;;;6.60;99.90;;;;;;5077618;28;20315;-65
2021/04/16 05:53:58;;;;;;;10.30;5.80;;;6.60;99.90;;;;;;5079313;28;20196;-65
2021/04/16 05:56:24;;;;;;;9.27;6.00;;;6.60;99.90;;;;;;5075825;28;20278;-65
2021/04/16 05:58:50;;;;;;;8.47;6.13;;;6.70;99.90;;;;;;5084564;28;20201;-65
2021/04/16 06:01:18;;;;;;;7.10;5.00;;;6.70;99.90;;;;;;5080354;28;20264;-65
2021/04/16 06:03:46;;;;;;;7.93;5.83;;;6.70;99.90;;;;;;5076115;28;20235;-67
2021/04/16 06:06:13;;;;;;;10.07;5.60;;;6.70;99.90;;;;;;5079877;28;20213;-66
2021/04/16 06:08:40;;;;;;;11.13;6.20;;;6.80;99.90;;;;;;5078628;28;20262;-67
2021/04/16 06:11:07;;;;;;;9.57;5.60;;;6.80;99.90;;;;;;5083517;28;20295;-67
2021/04/16 06:13:35;;;;;;;9.27;5.40;;;6.80;99.90;;;;;;5081695;28;20319;-65
2021/04/16 06:16:02;;;;;;;8.43;6.00;;;6.80;99.90;;;;;;5084979;28;20229;-66
2021/04/16 06:18:29;;;;;;;9.03;5.10;;;6.80;99.90;;;;;;5079767;28;20296;-65
2021/04/16 06:20:56;;;;;;;6.07;4.83;;;6.80;99.90;;;;;;5077959;28;20209;-67
2021/04/16 06:23:23;;;;;;;7.80;5.30;;;6.80;99.90;;;;;;5075107;28;20255;-65
2021/04/16 06:25:50;;;;;;;6.43;4.60;;;6.90;99.90;;;;;;5073980;28;20283;-67
2021/04/16 06:28:17;;;;;;;6.70;4.40;;;6.90;99.90;;;;;;5085507;28;20205;-67
2021/04/16 06:30:44;;;;;;;5.70;4.53;;;6.90;99.90;;;;;;5082097;28;20224;-65
2021/04/16 06:33:18;;;;;;;6.93;3.93;;;6.90;99.90;;;;;;5079774;28;20201;-68
2021/04/16 06:35:50;;;;;;;8.73;4.87;;;6.80;99.90;;;;;;5079622;28;20219;-67
2021/04/16 06:38:20;;;;;;;5.60;3.83;;;6.80;99.90;;;;;;5076671;28;20621;-65
2021/04/16 06:40:49;;;;;;;5.23;3.90;;;6.80;99.90;;;;;;5078628;28;20196;-67
2021/04/16 06:43:16;;;;;;;6.63;4.37;;;6.90;99.90;;;;;;5073142;28;20205;-69
2021/04/16 06:45:43;;;;;;;5.57;3.87;;;6.90;99.90;;;;;;5080258;28;20208;-68
2021/04/16 06:48:11;;;;;;;9.87;3.70;;;6.90;99.90;;;;;;5081672;28;20209;-69
2021/04/16 06:50:41;;;;;;;7.80;3.77;;;6.90;99.90;;;;;;5082771;28;20209;-70
2021/04/16 06:53:14;;;;;;;6.40;3.50;;;6.90;99.90;;;;;;5066578;28;20232;-70
2021/04/16 06:55:53;;;;;;;6.33;4.10;;;6.90;99.90;;;;;;5070270;28;20566;-71
2021/04/16 06:58:23;;;;;;;5.23;3.67;;;6.90;99.90;;;;;;5069620;28;20205;-69
2021/04/16 07:01:03;;;;;;;7.77;4.20;;;6.90;99.90;;;;;;5073939;28;20280;-72
2021/04/16 07:03:32;;;;;;;6.93;4.03;;;6.90;99.90;;;;;;5071291;28;20626;-70
2021/04/16 07:06:04;;;;;;;8.53;3.70;;;6.90;99.90;;;;;;5077732;28;20201;-71
2021/04/16 07:08:37;;;;;;;6.30;3.87;;;6.90;99.90;;;;;;5073189;28;20669;-69
2021/04/16 07:11:17;;;;;;;6.57;4.60;;;6.90;99.90;;;;;;5074374;28;20247;-69
2021/04/16 07:13:44;;;;;;;6.80;3.93;;;6.90;99.90;;;;;;5066630;28;20217;-69
2021/04/16 07:16:10;;;;;;;8.13;4.33;;;6.90;99.90;;;;;;5072829;28;20312;-69
2021/04/16 07:18:41;;;;;;;8.07;3.97;;;7.00;99.90;;;;;;5071142;28;20305;-69
2021/04/16 07:21:10;;;;;;;8.70;4.50;;;6.90;99.90;;;;;;5066470;28;20225;-69
2021/04/16 07:23:46;;;;;;;6.40;4.37;;;7.00;99.90;;;;;;5072956;28;20213;-68
2021/04/16 07:26:21;;;;;;;9.43;4.27;;;6.90;99.90;;;;;;5070445;28;20310;-69
2021/04/16 07:28:51;;;;;;;9.37;4.83;;;7.00;99.90;;;;;;5073612;28;20280;-68
2021/04/16 07:31:42;;;;;;;7.30;5.00;;;7.00;99.90;;;;;;5071850;28;20204;-71
2021/04/16 07:34:17;;;;;;;5.87;3.43;;;7.00;99.90;;;;;;5068026;28;20209;-69
2021/04/16 07:36:44;;;;;;;6.87;3.50;;;7.10;99.90;;;;;;5062709;28;20745;-70
2021/04/16 07:39:34;;;;;;;8.57;4.43;;;7.00;99.90;;;;;;5071836;28;20204;-68
2021/04/16 07:42:24;;;;;;;9.03;4.40;;;7.00;99.90;;;;;;5065046;28;20300;-69
2021/04/16 07:45:07;;;;;;;6.97;4.40;;;7.00;99.90;;;;;;5068170;28;20615;-69
2021/04/16 07:47:34;;;;;;;5.57;3.87;;;7.00;99.90;;;;;;5074598;28;20387;-67
2021/04/16 07:50:06;;;;;;;8.63;4.53;;;7.00;99.90;;;;;;5070628;28;20215;-67
2021/04/16 07:52:35;;;;;;;8.33;4.17;;;7.00;99.90;;;;;;5062213;28;20288;-67
2021/04/16 07:55:20;;;;;;;7.50;4.23;;;7.10;99.90;;;;;;5071582;28;20711;-67
2021/04/16 07:58:05;;;;;;;5.40;3.77;;;7.10;99.90;;;;;;5075827;28;20205;-66
2021/04/16 08:00:35;;;;;;;13.37;6.67;;;7.10;99.90;;;;;;5070659;28;20212;-68
2021/04/16 08:03:13;;;;;;;5.83;4.07;;;7.00;99.90;;;;;;5071079;28;20206;-69
2021/04/16 08:05:42;;;;;;;5.27;3.97;;;7.10;99.90;;;;;;5070958;28;20197;-68
2021/04/16 08:08:25;;;;;;;5.50;4.13;;;7.10;99.90;;;;;;5064213;28;20581;-68
2021/04/16 08:11:07;;;;;;;5.10;3.80;;;7.10;99.90;;;;;;5080959;28;20197;-67
2021/04/16 08:13:35;;;;;;;6.43;4.00;;;7.20;99.90;;;;;;5075909;28;20229;-68
2021/04/16 08:16:12;;;;;;;5.20;3.63;;;7.10;99.90;;;;;;5073943;28;20621;-69
2021/04/16 08:18:41;;;;;;;4.90;3.90;;;7.20;99.90;;;;;;5074560;28;20209;-68
2021/04/16 08:21:13;;;;;;;4.83;3.73;;;7.20;99.90;;;;;;5073892;28;20228;-69
2021/04/16 08:23:48;;;;;;;5.50;3.93;;;7.20;99.90;;;;;;5074890;28;20213;-67
2021/04/16 08:26:16;;;;;;;6.47;3.70;;;7.20;99.90;;;;;;5084770;28;20272;-66
2021/04/16 08:28:51;;;;;;;8.53;4.00;;;7.20;99.90;;;;;;5086637;28;20201;-68
2021/04/16 08:31:26;;;;;;;7.03;3.93;;;7.20;99.90;;;;;;5085743;28;20197;-68
2021/04/16 08:34:02;;;;;;;5.63;3.50;;;7.30;99.90;;;;;;5086848;28;20269;-68
2021/04/16 08:36:32;;;;;;;5.30;3.80;;;7.30;99.90;;;;;;5081947;28;20209;-68
2021/04/16 08:39:01;;;;;;;7.77;4.17;;;7.30;99.90;;;;;;5085236;28;20212;-68
2021/04/16 08:41:32;;;;;;;3.77;3.40;;;7.30;99.90;;;;;;5087082;28;20209;-67
2021/04/16 08:44:01;;;;;;;4.50;3.67;;;7.30;99.90;;;;;;5087753;28;20285;-67
2021/04/16 08:46:36;;;;;;;4.30;3.47;;;7.40;99.90;;;;;;5087236;28;20213;-65
2021/04/16 08:49:10;;;;;;;6.00;3.30;;;7.40;99.90;;;;;;5079879;28;20204;-64
2021/04/16 08:51:41;;;;;;;4.10;3.70;;;7.50;99.90;;;;;;5089437;28;20196;-64
2021/04/16 08:54:16;;;;;;;4.17;3.33;;;7.50;99.90;;;;;;5082466;28;20204;-63
2021/04/16 08:56:53;;;;;;;5.00;3.47;;;7.50;99.90;;;;;;5082320;28;20255;-68
2021/04/16 08:59:23;;;;;;;5.07;3.70;;;7.60;99.90;;;;;;5086913;28;20200;-64
2021/04/16 09:01:56;;;;;;;4.83;3.70;;;7.60;99.90;;;;;;5083940;28;20236;-65
2021/04/16 09:04:38;;;;;;;5.37;3.67;;;7.60;99.90;;;;;;5088559;28;20222;-65
2021/04/16 09:07:04;;;;;;;6.07;4.20;;;7.70;99.90;;;;;;5086525;28;20547;-65
2021/04/16 09:09:46;;;;;;;5.93;3.80;;;7.80;99.90;;;;;;5084370;28;20206;-64
2021/04/16 09:12:45;;;;;;;6.27;3.90;;;7.90;99.90;;;;;;5083141;28;20289;-66
2021/04/16 09:15:44;;;;;;;7.20;3.73;;;7.90;99.90;;;;;;5087022;28;20314;-67
2021/04/16 09:18:29;;;;;;;4.57;4.17;;;8.00;99.90;;;;;;5082393;28;20202;-67
2021/04/16 09:21:30;;;;;;;4.93;3.43;;;8.00;99.90;;;;;;5080906;28;20242;-68
2021/04/16 09:24:34;;;;;;;5.10;3.70;;;8.10;99.90;;;;;;5019859;28;20663;-70
2021/04/16 09:27:03;;;;;;;5.43;3.80;;;8.10;99.90;;;;;;5011775;28;20235;-71
2021/04/16 09:29:50;;;;;;;5.77;4.17;;;8.10;99.90;;;;;;5065728;28;20220;-67
2021/04/16 09:32:49;;;;;;;6.17;4.13;;;8.10;99.90;;;;;;5079570;28;20657;-69
2021/04/16 09:36:05;;;;;;;5.50;3.63;;;8.10;99.90;;;;;;5086078;28;20672;-68
2021/04/16 09:38:55;;;;;;;4.87;3.60;;;8.10;99.90;;;;;;5018912;28;20242;-68
2021/04/16 09:41:35;;;;;;;6.00;4.03;;;8.10;99.90;;;;;;5073063;28;20215;-68
2021/04/16 09:44:40;;;;;;;5.93;4.10;;;8.10;99.90;;;;;;5070918;28;20686;-68
2021/04/16 09:47:08;;;;;;;5.93;3.93;;;8.10;99.90;;;;;;5078282;28;20568;-67
2021/04/16 09:49:41;;;;;;;6.83;4.13;;;8.20;99.90;;;;;;5081407;28;20208;-67
2021/04/16 09:52:45;;;;;;;8.23;4.00;;;8.20;99.90;;;;;;5082699;28;20209;-68
2021/04/16 09:55:50;;;;;;;6.20;3.87;;;8.30;99.90;;;;;;5077378;28;20224;-68
2021/04/16 09:59:07;;;;;;;5.53;3.87;;;8.50;99.90;;;;;;5027162;28;20232;-67
2021/04/16 10:01:55;;;;;;;6.13;4.23;;;8.60;99.90;;;;;;5076822;28;20673;-68
2021/04/16 10:04:49;;;;;;;6.23;3.70;;;8.70;99.90;;;;;;5075504;28;20633;-68
2021/04/16 10:07:18;;;;;;;6.90;3.67;;;8.70;99.90;;;;;;5075352;28;20278;-67
2021/04/16 10:09:45;;;;;;;4.73;3.43;;;8.70;99.90;;;;;;5072687;28;20243;-67
2021/04/16 10:12:28;;;;;;;6.40;3.63;;;8.70;99.90;;;;;;5074599;28;20786;-67
2021/04/16 10:14:55;;;;;;;5.67;3.90;;;8.70;99.90;;;;;;5072251;28;20229;-68
2021/04/16 10:17:24;;;;;;;5.23;3.93;;;8.60;99.90;;;;;;5091100;28;20228;-68
2021/04/16 10:20:05;;;;;;;5.00;3.50;;;8.60;99.90;;;;;;5077228;28;20649;-69
2021/04/16 10:22:34;;;;;;;10.07;4.30;;;8.50;99.90;;;;;;5070036;28;20211;-68
2021/04/16 12:39:15;;;;;;;5.53;3.77;;;8.20;99.90;;;;;;5032479;28;20709;-67
2021/04/16 12:41:47;;;;;;;4.83;3.57;;;8.20;99.90;;;;;;5029297;28;20249;-67
2021/04/16 12:44:24;;;;;;;5.73;3.93;;;8.20;99.90;;;;;;5067419;28;20212;-67
2021/04/16 12:46:52;;;;;;;5.73;3.53;;;8.20;99.90;;;;;;5074842;28;20673;-67
2021/04/16 12:49:19;;;;;;;6.47;4.30;;;8.20;99.90;;;;;;5074610;28;20205;-68
2021/04/16 12:51:46;;;;;;;6.43;4.13;;;8.20;99.90;;;;;;5074469;28;20585;-69
2021/04/16 12:54:12;;;;;;;7.27;4.30;;;8.30;99.90;;;;;;5075325;28;20217;-70
2021/04/16 12:56:42;;;;;;;5.70;4.43;;;8.30;99.90;;;;;;5071002;28;20747;-70
2021/04/16 12:59:12;;;;;;;5.07;4.33;;;8.30;99.90;;;;;;5069676;28;20213;-70
2021/04/16 13:01:39;;;;;;;5.13;4.10;;;8.30;99.90;;;;;;5067890;28;20206;-70
2021/04/16 13:04:07;;;;;;;5.17;3.63;;;8.30;99.90;;;;;;5070345;28;20220;-69
2021/04/16 13:06:39;;;;;;;5.80;4.37;;;8.30;99.90;;;;;;5067704;28;20206;-69
2021/04/16 13:09:08;;;;;;;5.47;4.33;;;8.30;99.90;;;;;;5066377;28;20270;-70
2021/04/16 13:11:35;;;;;;;6.50;4.20;;;8.30;99.90;;;;;;5076989;28;20202;-69
2021/04/16 13:14:01;;;;;;;7.50;4.73;;;8.30;99.90;;;;;;5070246;28;20217;-68
2021/04/16 13:16:28;;;;;;;5.80;4.57;;;8.30;99.90;;;;;;5087340;28;20678;-71
2021/04/16 13:18:57;;;;;;;5.93;4.60;;;8.20;99.90;;;;;;5073901;28;20208;-67
2021/04/16 13:21:28;;;;;;;10.43;4.37;;;8.20;99.90;;;;;;5074052;28;20657;-68
2021/04/16 13:23:56;;;;;;;6.40;4.47;;;8.20;99.90;;;;;;5074131;28;20197;-70
2021/04/16 13:26:23;;;;;;;6.13;4.53;;;8.20;99.90;;;;;;5074229;28;20317;-68
2021/04/16 13:28:49;;;;;;;6.70;4.70;;;8.20;99.90;;;;;;5073533;28;20213;-69
2021/04/16 13:31:16;;;;;;;6.30;4.87;;;8.20;99.90;;;;;;5071990;28;20263;-70
2021/04/16 13:33:44;;;;;;;6.53;4.60;;;8.20;99.90;;;;;;5073702;28;20288;-68
2021/04/16 13:36:17;;;;;;;6.47;5.10;;;8.20;99.90;;;;;;5073265;28;20279;-70
2021/04/16 13:38:44;;;;;;;6.83;4.90;;;8.20;99.90;;;;;;5069218;28;20209;-69
2021/04/16 13:41:12;;;;;;;6.30;4.43;;;8.10;99.90;;;;;;5061407;28;20209;-69
2021/04/16 13:43:39;;;;;;;5.53;4.50;;;8.10;99.90;;;;;;5074296;28;20766;-68
2021/04/16 13:46:08;;;;;;;8.27;5.73;;;8.10;99.90;;;;;;5071847;28;20578;-65
2021/04/16 13:48:35;;;;;;;7.77;6.53;;;8.10;99.90;;;;;;5071870;28;20201;-69
2021/04/16 13:51:01;;;;;;;5.67;5.03;;;8.10;99.90;;;;;;5069767;28;20685;-68
2021/04/16 13:53:28;;;;;;;6.17;5.57;;;8.00;99.90;;;;;;5073669;28;20205;-67
2021/04/16 13:55:55;;;;;;;4.70;4.23;;;7.90;99.90;;;;;;5073531;28;20304;-67
2021/04/16 13:58:24;;;;;;;5.60;5.10;;;7.80;99.90;;;;;;5081146;28;20213;-68
2021/04/16 14:00:50;;;;;;;5.87;5.20;;;7.70;99.90;;;;;;5081978;28;20571;-67
2021/04/16 14:03:26;;;;;;;4.80;4.40;;;7.50;99.90;;;;;;5082702;28;20204;-67
2021/04/16 14:05:55;;;;;;;3.53;3.23;;;7.50;99.90;;;;;;5082586;28;20227;-67
2021/04/16 14:08:26;;;;;;;2.73;2.53;;;7.50;99.90;;;;;;5085015;28;20213;-66
2021/04/16 14:10:53;;;;;;;2.30;2.10;;;7.40;99.90;;;;;;5082707;28;20201;-68
2021/04/16 14:13:20;;;;;;;4.00;2.40;;;7.40;99.90;;;;;;5084130;28;20205;-68
2021/04/16 14:15:47;;;;;;;3.57;2.60;;;7.30;99.90;;;;;;5081926;28;20300;-67
2021/04/16 14:18:27;;;;;;;3.03;2.00;;;7.30;99.90;;;;;;5080127;28;20682;-67
2021/04/16 14:20:53;;;;;;;2.60;2.10;;;7.30;99.90;;;;;;5087036;28;20197;-68
2021/04/16 14:23:22;;;;;;;5.07;3.50;;;7.20;99.90;;;;;;5083722;28;20209;-68
2021/04/16 14:25:48;;;;;;;4.33;2.50;;;7.20;99.90;;;;;;5087663;28;20224;-66
2021/04/16 14:28:16;;;;;;;1.60;1.50;;;7.20;99.90;;;;;;5084285;28;20283;-67
2021/04/16 14:30:44;;;;;;;2.80;2.10;;;7.20;99.90;;;;;;5085718;28;20223;-67
2021/04/16 14:33:15;;;;;;;3.13;2.30;;;7.20;99.90;;;;;;5084934;28;20204;-66
2021/04/16 14:35:42;;;;;;;2.20;1.70;;;7.20;99.90;;;;;;5080760;28;20315;-66
2021/04/16 14:38:09;;;;;;;2.07;1.93;;;7.20;99.90;;;;;;5082110;28;20233;-67
2021/04/16 14:40:37;;;;;;;3.50;2.20;;;7.20;99.90;;;;;;5082829;28;20219;-66
2021/04/16 14:43:04;;;;;;;3.57;2.57;;;7.20;99.90;;;;;;5083362;28;21020;-68
2021/04/16 14:45:34;;;;;;;5.63;2.53;;;7.20;99.90;;;;;;5082787;28;20228;-67
2021/04/16 14:48:02;;;;;;;2.53;2.33;;;7.20;99.90;;;;;;5080160;28;20205;-67
2021/04/16 14:50:30;;;;;;;3.27;2.83;;;7.20;99.90;;;;;;5082637;28;20201;-66
2021/04/16 14:53:00;;;;;;;3.33;2.87;;;7.20;99.90;;;;;;5083866;28;20208;-67
2021/04/16 14:55:29;;;;;;;4.03;3.07;;;7.30;99.90;;;;;;5083681;28;20303;-66
2021/04/16 14:57:58;;;;;;;3.90;3.00;;;7.40;99.90;;;;;;5084913;28;20196;-67
2021/04/16 15:00:27;;;;;;;3.90;2.90;;;7.40;99.90;;;;;;5083282;28;20258;-67
2021/04/16 15:02:54;;;;;;;4.50;2.83;;;7.50;99.90;;;;;;5083631;28;20213;-67
2021/04/16 15:05:21;;;;;;;5.70;3.63;;;7.50;99.90;;;;;;5079423;28;20270;-67
2021/04/16 15:07:52;;;;;;;5.53;3.23;;;7.50;99.90;;;;;;5084853;28;20305;-66
2021/04/16 15:10:23;;;;;;;6.00;3.43;;;7.50;99.90;;;;;;5083949;28;20244;-66
2021/04/16 15:12:50;;;;;;;4.40;3.63;;;7.60;99.90;;;;;;5083370;28;20211;-65
2021/04/16 15:15:25;;;;;;;4.87;3.37;;;7.60;99.90;;;;;;5081565;28;20239;-66
2021/04/16 15:17:52;;;;;;;4.27;3.37;;;7.60;99.90;;;;;;5078880;28;20214;-67
2021/04/16 15:20:21;;;;;;;5.47;4.10;;;7.70;99.90;;;;;;5084960;28;20232;-67
2021/04/16 15:22:47;;;;;;;6.20;4.43;;;7.70;99.90;;;;;;5083118;28;20205;-66
2021/04/16 15:25:15;;;;;;;6.43;3.83;;;7.80;99.90;;;;;;5089981;28;20230;-66
2021/04/16 15:27:46;;;;;;;6.30;4.13;;;7.80;99.90;;;;;;5089271;28;20826;-67